Time;durP1;ratioP1;P1;durP2;ratioP2;P2;SDS_P1;SDS_P2;PMS_P1;PMS_P2;Temp;Humidity;BMP_temperature;BMP_pressure;BME280_temperature;BME280_humidity;BME280_pressure;Samples;Min_cycle;Max_cycle;Signal;HPM_P1;HPM_P2
2023/11/12 00:00:21;;;;;;;2.75;2.33;;;5.90;99.90;;;;;;5155288;27;20551;-42
2023/11/12 00:02:47;;;;;;;3.38;2.13;;;5.90;99.90;;;;;;5155142;27;20054;-43
2023/11/12 00:05:12;;;;;;;3.65;2.30;;;5.90;99.90;;;;;;5154943;27;20031;-45
2023/11/12 00:07:38;;;;;;;5.22;2.72;;;5.90;99.90;;;;;;5154456;27;20516;-47
2023/11/12 00:10:04;;;;;;;6.15;2.42;;;5.90;99.90;;;;;;5154803;27;20094;-49
2023/11/12 00:12:31;;;;;;;5.03;2.33;;;5.90;99.90;;;;;;5154319;27;20122;-46
2023/11/12 00:14:57;;;;;;;5.45;2.47;;;5.90;99.90;;;;;;5154988;27;20039;-48
2023/11/12 00:17:25;;;;;;;5.80;2.47;;;5.80;99.90;;;;;;5153522;27;20046;-43
2023/11/12 00:19:51;;;;;;;5.90;2.38;;;5.80;99.90;;;;;;5154674;27;20087;-47
2023/11/12 00:22:16;;;;;;;3.72;2.45;;;5.70;99.90;;;;;;5154231;27;20494;-44
2023/11/12 00:24:42;;;;;;;5.10;2.97;;;5.70;99.90;;;;;;5154760;27;20029;-42
2023/11/12 00:27:08;;;;;;;7.10;2.85;;;5.70;99.90;;;;;;5153487;27;20113;-45
2023/11/12 00:29:34;;;;;;;7.65;2.88;;;5.70;99.90;;;;;;5154490;27;20038;-45
2023/11/12 00:32:00;;;;;;;4.90;2.97;;;5.60;99.90;;;;;;5154580;27;20039;-43
2023/11/12 00:34:25;;;;;;;6.30;3.20;;;5.70;99.90;;;;;;5135613;27;20544;-44
2023/11/12 00:36:51;;;;;;;9.93;3.50;;;5.70;99.90;;;;;;5152605;27;20117;-46
2023/11/12 00:39:17;;;;;;;6.28;3.33;;;5.70;99.90;;;;;;5137214;27;20047;-45
2023/11/12 00:41:43;;;;;;;3.70;3.13;;;5.70;99.90;;;;;;5153997;27;20146;-44
2023/11/12 00:44:10;;;;;;;4.22;3.17;;;5.70;99.90;;;;;;5134573;27;20042;-45
2023/11/12 00:46:40;;;;;;;9.23;4.00;;;5.70;99.90;;;;;;5154027;27;20034;-43
2023/11/12 00:49:07;;;;;;;6.13;4.10;;;5.70;99.90;;;;;;5125854;27;20042;-47
2023/11/12 00:51:34;;;;;;;6.43;3.95;;;5.70;99.90;;;;;;5154062;27;20430;-44
2023/11/12 00:54:00;;;;;;;8.93;4.40;;;5.70;99.90;;;;;;5154245;27;20384;-45
2023/11/12 00:56:26;;;;;;;11.85;4.80;;;5.80;99.90;;;;;;5154140;27;20074;-42
2023/11/12 00:58:52;;;;;;;9.73;5.07;;;5.70;99.90;;;;;;5153257;27;20066;-42
2023/11/12 01:01:18;;;;;;;5.95;4.50;;;5.70;99.90;;;;;;5153762;27;20050;-47
2023/11/12 01:03:44;;;;;;;8.13;4.93;;;5.70;99.90;;;;;;5135325;27;20034;-48
2023/11/12 01:06:10;;;;;;;7.95;5.40;;;5.60;99.90;;;;;;5153618;27;20038;-47
2023/11/12 01:08:36;;;;;;;11.38;6.55;;;5.60;99.90;;;;;;5148530;27;20518;-42
2023/11/12 01:11:01;;;;;;;11.35;7.57;;;5.60;99.90;;;;;;5154031;27;20074;-45
2023/11/12 01:13:27;;;;;;;15.15;8.50;;;5.70;99.90;;;;;;5147978;27;20048;-48
2023/11/12 01:15:53;;;;;;;8.55;6.60;;;5.70;99.90;;;;;;5153570;27;20026;-44
2023/11/12 01:18:20;;;;;;;9.52;6.95;;;5.60;99.90;;;;;;5153460;27;20031;-48
2023/11/12 01:20:46;;;;;;;12.07;7.25;;;5.60;99.90;;;;;;5153824;27;20043;-47
2023/11/12 01:23:13;;;;;;;10.23;7.57;;;5.60;99.90;;;;;;5153161;27;20468;-47
2023/11/12 01:25:40;;;;;;;9.07;7.75;;;5.60;99.90;;;;;;5153725;27;20091;-45
2023/11/12 01:28:06;;;;;;;13.80;9.15;;;5.60;99.90;;;;;;5153298;27;20480;-47
2023/11/12 01:30:32;;;;;;;14.60;9.02;;;5.70;99.90;;;;;;5153454;27;20079;-47
2023/11/12 01:32:58;;;;;;;12.13;8.80;;;5.70;99.90;;;;;;5153391;27;20034;-45
2023/11/12 01:35:24;;;;;;;12.20;8.32;;;5.70;99.90;;;;;;5153453;27;20041;-47
2023/11/12 01:37:49;;;;;;;35.35;10.52;;;5.70;99.90;;;;;;5144551;27;20042;-49
2023/11/12 01:40:16;;;;;;;17.63;9.10;;;5.60;99.90;;;;;;5151003;27;20038;-48
2023/11/12 01:42:45;;;;;;;24.77;9.88;;;5.70;99.90;;;;;;5144168;27;20129;-50
2023/11/12 01:45:12;;;;;;;53.60;10.57;;;5.80;99.90;;;;;;5153144;27;20098;-46
2023/11/12 01:47:40;;;;;;;45.50;10.85;;;5.70;99.90;;;;;;5153541;27;20039;-46
2023/11/12 01:50:09;;;;;;;39.03;11.13;;;5.80;99.90;;;;;;5153226;27;20415;-42
2023/11/12 01:52:37;;;;;;;38.05;10.73;;;5.80;99.90;;;;;;5150616;27;20039;-44
2023/11/12 01:55:05;;;;;;;17.23;10.43;;;5.80;99.90;;;;;;5153230;27;20068;-43
2023/11/12 01:57:33;;;;;;;58.30;11.70;;;5.80;99.90;;;;;;5153239;27;20035;-48
2023/11/12 02:00:10;;;;;;;16.35;10.70;;;5.90;99.90;;;;;;5152973;27;20280;-49
2023/11/12 02:02:37;;;;;;;24.58;11.32;;;5.90;99.90;;;;;;5153070;27;20061;-47
2023/11/12 02:05:08;;;;;;;19.85;11.07;;;5.90;99.90;;;;;;5153139;27;20114;-48
2023/11/12 02:07:41;;;;;;;28.55;11.77;;;5.90;99.90;;;;;;5149157;27;20061;-45
2023/11/12 02:10:09;;;;;;;40.40;11.88;;;5.90;99.90;;;;;;5153158;27;20041;-43
2023/11/12 02:12:37;;;;;;;27.73;11.82;;;5.90;99.90;;;;;;5148600;27;20114;-45
2023/11/12 02:15:04;;;;;;;59.53;11.68;;;5.90;99.90;;;;;;5153260;27;20039;-43
2023/11/12 02:17:31;;;;;;;50.30;12.98;;;6.00;99.90;;;;;;5149619;27;20035;-43
2023/11/12 02:20:08;;;;;;;27.45;11.10;;;6.00;99.90;;;;;;5152071;27;20117;-47
2023/11/12 02:22:34;;;;;;;46.08;12.65;;;6.00;99.90;;;;;;5152966;27;20397;-45
2023/11/12 02:25:04;;;;;;;47.20;13.82;;;6.00;99.90;;;;;;5152715;27;20122;-46
2023/11/12 02:27:30;;;;;;;40.17;13.32;;;6.00;99.90;;;;;;5153118;27;20043;-46
2023/11/12 02:29:55;;;;;;;49.55;13.80;;;6.00;99.90;;;;;;5152653;27;20545;-46
2023/11/12 02:32:22;;;;;;;57.72;13.77;;;6.00;99.90;;;;;;5153206;27;20046;-45
2023/11/12 02:34:48;;;;;;;30.00;11.68;;;6.00;99.90;;;;;;5152949;27;20045;-46
2023/11/12 02:37:14;;;;;;;123.18;16.40;;;6.00;99.90;;;;;;5151727;27;20121;-46
2023/11/12 02:39:43;;;;;;;59.33;14.30;;;6.00;99.90;;;;;;5127941;27;20066;-43
2023/11/12 02:42:13;;;;;;;69.45;13.15;;;6.00;99.90;;;;;;5105406;27;20057;-43
2023/11/12 02:44:39;;;;;;;41.17;12.95;;;6.00;99.90;;;;;;5137668;27;20046;-45
2023/11/12 02:47:06;;;;;;;81.68;13.73;;;6.00;99.90;;;;;;5152627;27;20035;-43
2023/11/12 02:50:09;;;;;;;21.27;12.15;;;6.10;99.90;;;;;;5154259;27;20105;-43
2023/11/12 02:52:34;;;;;;;16.05;12.40;;;6.00;99.90;;;;;;5129509;27;20035;-47
2023/11/12 02:55:00;;;;;;;18.10;12.25;;;6.10;99.90;;;;;;5156445;27;20052;-43
2023/11/12 02:57:26;;;;;;;15.15;11.70;;;6.10;99.90;;;;;;5156802;27;20042;-45
2023/11/12 02:59:53;;;;;;;22.83;13.10;;;6.10;99.90;;;;;;5156567;27;20085;-46
2023/11/12 03:02:19;;;;;;;23.30;14.07;;;6.10;99.90;;;;;;5156145;27;20438;-43
2023/11/12 03:04:47;;;;;;;17.52;12.38;;;6.10;99.90;;;;;;5156226;27;20034;-46
2023/11/12 03:07:12;;;;;;;13.80;11.80;;;6.10;99.90;;;;;;5156439;27;20027;-48
2023/11/12 03:09:38;;;;;;;16.48;12.45;;;6.10;99.90;;;;;;5143470;27;20118;-48
2023/11/12 03:12:04;;;;;;;16.00;12.20;;;6.00;99.90;;;;;;5156100;27;20035;-47
2023/11/12 03:14:31;;;;;;;14.45;10.73;;;6.10;99.90;;;;;;5143207;27;20046;-45
2023/11/12 03:16:57;;;;;;;13.57;10.98;;;6.10;99.90;;;;;;5155829;27;20480;-45
2023/11/12 03:19:23;;;;;;;16.83;11.35;;;6.10;99.90;;;;;;5154216;27;20034;-55
2023/11/12 03:21:52;;;;;;;16.20;11.73;;;6.10;99.90;;;;;;5155756;27;20047;-56
2023/11/12 03:24:18;;;;;;;;;;;6.10;99.90;;;;;;5156095;27;20092;-55
2023/11/12 03:26:44;;;;;;;12.55;9.10;;;6.00;99.90;;;;;;5155703;27;20280;-56
2023/11/12 03:29:10;;;;;;;14.77;9.98;;;5.90;99.90;;;;;;5155331;27;20038;-54
2023/11/12 03:31:35;;;;;;;14.32;10.90;;;5.90;99.90;;;;;;5155551;27;20027;-55
2023/11/12 03:34:02;;;;;;;11.48;10.00;;;5.90;99.90;;;;;;5155419;27;20038;-56
2023/11/12 03:36:28;;;;;;;12.07;9.70;;;5.90;99.90;;;;;;5155389;27;20049;-55
2023/11/12 03:38:54;;;;;;;14.05;11.05;;;6.00;99.90;;;;;;5153796;27;20038;-56
2023/11/12 03:41:20;;;;;;;16.42;11.55;;;5.90;99.90;;;;;;5154865;27;20118;-55
2023/11/12 03:43:46;;;;;;;12.63;10.10;;;5.90;99.90;;;;;;5155196;27;20118;-55
2023/11/12 03:46:12;;;;;;;14.32;9.27;;;5.80;99.90;;;;;;5155066;27;20063;-54
2023/11/12 03:48:38;;;;;;;14.80;10.18;;;5.80;99.90;;;;;;5155478;27;20031;-55
2023/11/12 03:51:04;;;;;;;12.45;10.32;;;5.80;99.90;;;;;;5155108;27;20039;-53
2023/11/12 03:53:29;;;;;;;13.15;10.02;;;5.70;99.90;;;;;;5136335;27;20049;-54
2023/11/12 03:55:55;;;;;;;15.73;10.55;;;5.60;99.90;;;;;;5154996;27;20043;-55
2023/11/12 03:58:21;;;;;;;12.00;9.25;;;5.60;99.90;;;;;;5155280;27;20042;-55
2023/11/12 04:00:47;;;;;;;12.63;9.98;;;5.60;99.90;;;;;;5155072;27;20145;-54
2023/11/12 04:03:12;;;;;;;12.77;10.18;;;5.60;99.90;;;;;;5154831;27;20536;-54
2023/11/12 04:05:38;;;;;;;12.50;10.68;;;5.60;99.90;;;;;;5154750;27;20039;-55
2023/11/12 04:08:04;;;;;;;13.25;10.07;;;5.60;99.90;;;;;;5149008;27;20035;-54
2023/11/12 04:10:30;;;;;;;25.25;12.07;;;5.60;99.90;;;;;;5148937;27;20500;-53
2023/11/12 04:12:57;;;;;;;19.52;13.73;;;5.60;99.90;;;;;;5131863;27;20041;-54
2023/11/12 04:15:23;;;;;;;50.00;14.85;;;5.70;99.90;;;;;;5128484;27;20043;-55
2023/11/12 04:17:48;;;;;;;34.33;13.32;;;5.70;99.90;;;;;;5154695;27;20387;-57
2023/11/12 04:20:15;;;;;;;17.98;12.20;;;5.70;99.90;;;;;;5150976;27;20039;-56
2023/11/12 04:22:41;;;;;;;41.78;14.13;;;5.70;99.90;;;;;;5151020;27;20038;-56
2023/11/12 04:25:07;;;;;;;24.70;13.23;;;5.60;99.90;;;;;;5154630;27;20038;-54
2023/11/12 04:27:33;;;;;;;15.18;12.07;;;5.70;99.90;;;;;;5154222;27;20496;-55
2023/11/12 04:29:59;;;;;;;22.58;13.20;;;5.60;99.90;;;;;;5154345;27;20114;-55
2023/11/12 04:32:24;;;;;;;23.23;12.82;;;5.70;99.90;;;;;;5154548;27;20051;-55
2023/11/12 04:34:50;;;;;;;17.98;12.77;;;5.80;99.90;;;;;;5154366;27;20388;-54
2023/11/12 04:37:16;;;;;;;20.02;14.13;;;5.80;99.90;;;;;;5154411;27;20441;-55
2023/11/12 04:39:41;;;;;;;27.25;14.13;;;5.70;99.90;;;;;;5135304;27;20049;-54
2023/11/12 04:42:07;;;;;;;17.27;13.30;;;5.80;99.90;;;;;;5153911;27;20104;-55
2023/11/12 04:44:33;;;;;;;15.45;12.68;;;5.80;99.90;;;;;;5154171;27;20388;-53
2023/11/12 04:46:59;;;;;;;22.05;13.88;;;5.80;99.90;;;;;;5154555;27;20351;-55
2023/11/12 04:49:24;;;;;;;19.83;13.25;;;5.80;99.90;;;;;;5154273;27;20035;-54
2023/11/12 04:51:53;;;;;;;18.27;13.90;;;5.80;99.90;;;;;;5153839;27;20039;-56
2023/11/12 04:54:19;;;;;;;23.60;13.57;;;5.90;99.90;;;;;;5154274;27;20045;-56
2023/11/12 04:56:48;;;;;;;19.50;13.55;;;5.90;99.90;;;;;;5153839;27;20043;-54
2023/11/12 04:59:15;;;;;;;23.33;13.68;;;5.90;99.90;;;;;;5153899;27;20146;-55
2023/11/12 05:01:41;;;;;;;19.13;12.10;;;5.90;99.90;;;;;;5154024;27;20074;-55
2023/11/12 05:04:07;;;;;;;18.00;11.95;;;5.90;99.90;;;;;;5153583;27;20103;-55
2023/11/12 05:06:33;;;;;;;17.58;13.60;;;5.90;99.90;;;;;;5153917;27;20037;-54
2023/11/12 05:08:59;;;;;;;16.88;13.02;;;5.80;99.90;;;;;;5143243;27;20031;-54
2023/11/12 05:11:26;;;;;;;20.15;13.30;;;5.90;99.90;;;;;;5153362;27;20061;-55
2023/11/12 05:13:52;;;;;;;20.10;13.48;;;5.90;99.90;;;;;;5153365;27;20034;-54
2023/11/12 05:16:18;;;;;;;18.15;13.48;;;6.00;99.90;;;;;;5153602;27;20034;-55
2023/11/12 05:18:43;;;;;;;15.70;12.85;;;5.90;99.90;;;;;;5153517;27;20080;-54
2023/11/12 05:21:09;;;;;;;16.75;13.38;;;5.90;99.90;;;;;;5153233;27;20061;-55
2023/11/12 05:23:36;;;;;;;17.42;13.30;;;6.00;99.90;;;;;;5153538;27;20047;-55
2023/11/12 05:26:01;;;;;;;21.35;13.73;;;6.00;99.90;;;;;;5153316;27;20038;-56
2023/11/12 05:28:27;;;;;;;17.25;14.02;;;6.00;99.90;;;;;;5153323;27;20389;-56
2023/11/12 05:30:54;;;;;;;16.15;12.13;;;5.90;99.90;;;;;;5153218;27;20087;-54
2023/11/12 05:33:20;;;;;;;17.27;13.68;;;6.00;99.90;;;;;;5153418;27;20039;-54
2023/11/12 05:35:46;;;;;;;16.00;12.82;;;6.00;99.90;;;;;;5153170;27;20041;-55
2023/11/12 05:38:12;;;;;;;15.82;12.27;;;6.00;99.90;;;;;;5153432;27;20061;-55
2023/11/12 05:40:38;;;;;;;17.33;12.77;;;6.00;99.90;;;;;;5134729;27;20142;-55
2023/11/12 05:43:04;;;;;;;14.45;12.07;;;5.90;99.90;;;;;;5152741;27;20055;-55
2023/11/12 05:45:30;;;;;;;15.73;12.63;;;5.90;99.90;;;;;;5153346;27;20043;-55
2023/11/12 05:47:57;;;;;;;14.77;12.02;;;5.90;99.90;;;;;;5153168;27;20113;-54
2023/11/12 05:50:23;;;;;;;15.18;11.30;;;6.00;99.90;;;;;;5153041;27;20500;-54
2023/11/12 05:52:49;;;;;;;14.15;11.35;;;5.80;99.90;;;;;;5134841;27;20035;-54
2023/11/12 05:55:15;;;;;;;15.90;12.05;;;5.90;99.90;;;;;;5153000;27;20046;-55
2023/11/12 05:57:41;;;;;;;18.33;11.90;;;5.80;99.90;;;;;;5153313;27;20054;-55
2023/11/12 06:00:07;;;;;;;19.08;12.63;;;5.80;99.90;;;;;;5134833;27;20074;-54
2023/11/12 06:02:34;;;;;;;17.65;13.27;;;5.80;99.90;;;;;;5134327;27;20469;-53
2023/11/12 06:05:00;;;;;;;15.25;11.88;;;5.80;99.90;;;;;;5134393;27;20043;-54
2023/11/12 06:07:25;;;;;;;16.25;12.43;;;5.80;99.90;;;;;;5152737;27;20029;-54
2023/11/12 06:09:51;;;;;;;15.60;12.05;;;5.70;99.90;;;;;;5152850;27;20114;-55
2023/11/12 06:12:17;;;;;;;17.10;12.05;;;5.70;99.90;;;;;;5152867;27;20038;-55
2023/11/12 06:14:43;;;;;;;16.08;12.75;;;5.70;99.90;;;;;;5153014;27;20056;-53
2023/11/12 06:17:08;;;;;;;16.77;12.55;;;5.60;99.90;;;;;;5153045;27;20042;-55
2023/11/12 06:19:34;;;;;;;16.58;13.18;;;5.70;99.90;;;;;;5152835;27;20038;-54
2023/11/12 06:22:01;;;;;;;15.98;12.52;;;5.70;99.90;;;;;;5152500;27;20041;-52
2023/11/12 06:24:27;;;;;;;17.50;13.68;;;5.70;99.90;;;;;;5140678;27;20080;-54
2023/11/12 06:26:52;;;;;;;21.40;13.77;;;5.70;99.90;;;;;;5155929;27;20031;-55
2023/11/12 06:29:18;;;;;;;17.52;12.93;;;5.60;99.90;;;;;;5156748;27;20511;-54
2023/11/12 06:31:44;;;;;;;18.23;13.75;;;5.70;99.90;;;;;;5138241;27;20070;-54
2023/11/12 06:34:09;;;;;;;16.13;12.80;;;5.60;99.90;;;;;;5156749;27;20114;-52
2023/11/12 06:36:35;;;;;;;23.58;13.50;;;5.60;99.90;;;;;;5156364;27;20039;-53
2023/11/12 06:39:01;;;;;;;25.55;13.82;;;5.60;99.90;;;;;;5156596;27;20041;-54
2023/11/12 06:41:27;;;;;;;21.65;13.63;;;5.50;99.90;;;;;;5146827;27;20055;-54
2023/11/12 06:43:53;;;;;;;25.05;13.00;;;5.50;99.90;;;;;;5156986;27;20050;-55
2023/11/12 06:46:18;;;;;;;15.82;12.73;;;5.50;99.90;;;;;;5156552;27;20391;-55
2023/11/12 06:48:44;;;;;;;17.15;12.82;;;5.50;99.90;;;;;;5156336;27;20039;-55
2023/11/12 06:51:20;;;;;;;60.67;14.60;;;5.50;99.90;;;;;;5156314;27;20039;-55
2023/11/12 06:53:46;;;;;;;41.95;15.40;;;5.50;99.90;;;;;;5156060;27;20035;-55
2023/11/12 06:56:11;;;;;;;22.30;13.68;;;5.50;99.90;;;;;;5137920;27;20042;-55
2023/11/12 06:58:39;;;;;;;21.02;12.93;;;5.40;99.90;;;;;;5155955;27;20115;-54
2023/11/12 07:01:05;;;;;;;41.65;14.80;;;5.40;99.90;;;;;;5137867;27;20133;-55
2023/11/12 07:03:30;;;;;;;20.92;14.25;;;5.50;99.90;;;;;;5156156;27;20567;-55
2023/11/12 07:05:56;;;;;;;19.83;14.32;;;5.40;99.90;;;;;;5146599;27;20379;-54
2023/11/12 07:08:22;;;;;;;28.13;14.10;;;5.50;99.90;;;;;;5155937;27;20034;-55
2023/11/12 07:10:47;;;;;;;31.73;14.55;;;5.50;99.90;;;;;;5145968;27;20114;-55
2023/11/12 07:13:15;;;;;;;25.23;15.07;;;5.50;99.90;;;;;;5155980;27;20039;-55
2023/11/12 07:15:43;;;;;;;29.63;13.85;;;5.50;99.90;;;;;;5137315;27;20074;-56
2023/11/12 07:18:08;;;;;;;26.33;14.07;;;5.60;99.90;;;;;;5137290;27;20034;-54
2023/11/12 07:20:34;;;;;;;25.35;14.98;;;5.60;99.90;;;;;;5155753;27;20075;-55
2023/11/12 07:23:00;;;;;;;30.23;14.10;;;5.60;99.90;;;;;;5155427;27;20035;-55
2023/11/12 07:25:26;;;;;;;32.58;13.93;;;5.50;99.90;;;;;;5137436;27;20047;-55
2023/11/12 07:27:52;;;;;;;38.22;16.50;;;5.50;99.90;;;;;;5155733;27;20080;-55
2023/11/12 07:30:18;;;;;;;16.85;13.02;;;5.50;99.90;;;;;;5155556;27;20027;-55
2023/11/12 07:32:43;;;;;;;27.00;14.10;;;5.60;99.90;;;;;;5155654;27;20045;-55
2023/11/12 07:35:13;;;;;;;22.58;13.38;;;5.60;99.90;;;;;;5155046;27;20079;-54
2023/11/12 07:37:41;;;;;;;21.93;14.17;;;5.60;99.90;;;;;;5155274;27;20519;-55
2023/11/12 07:40:12;;;;;;;27.58;13.20;;;5.60;99.90;;;;;;5145875;27;20058;-55
2023/11/12 07:42:39;;;;;;;19.52;13.48;;;5.60;99.90;;;;;;5154987;27;20064;-54
2023/11/12 07:45:09;;;;;;;22.80;14.23;;;5.60;99.90;;;;;;5145167;27;20148;-56
2023/11/12 07:47:35;;;;;;;20.88;13.93;;;5.70;99.90;;;;;;5155465;27;20035;-55
2023/11/12 07:50:05;;;;;;;20.33;12.88;;;5.60;99.90;;;;;;5155308;27;20038;-56
2023/11/12 07:52:31;;;;;;;17.60;13.20;;;5.70;99.90;;;;;;5109161;27;20034;-54
2023/11/12 07:54:57;;;;;;;19.13;12.85;;;5.70;99.90;;;;;;5155430;27;20042;-52
2023/11/12 07:57:24;;;;;;;15.48;11.93;;;5.80;99.90;;;;;;5155092;27;20072;-54
2023/11/12 07:59:50;;;;;;;18.23;12.00;;;5.90;99.90;;;;;;5155399;27;20038;-56
2023/11/12 08:02:18;;;;;;;14.80;12.38;;;5.80;99.90;;;;;;5155013;27;20043;-56
2023/11/12 08:04:44;;;;;;;17.25;12.45;;;5.90;99.90;;;;;;5155215;27;20044;-56
2023/11/12 08:07:10;;;;;;;17.58;13.18;;;6.00;99.90;;;;;;5154969;27;20035;-55
2023/11/12 08:09:39;;;;;;;13.60;11.40;;;6.00;99.90;;;;;;5150334;27;20084;-55
2023/11/12 08:12:05;;;;;;;15.85;12.60;;;6.10;99.90;;;;;;5155261;27;20054;-56
2023/11/12 08:14:36;;;;;;;18.20;13.15;;;6.10;99.90;;;;;;5154867;27;20039;-56
2023/11/12 08:17:03;;;;;;;15.55;12.20;;;6.10;99.90;;;;;;5136172;27;20045;-56
2023/11/12 08:19:28;;;;;;;13.80;11.93;;;6.20;99.90;;;;;;5154655;27;20450;-54
2023/11/12 08:21:54;;;;;;;14.93;11.63;;;6.20;99.90;;;;;;5154748;27;20134;-56
2023/11/12 08:24:20;;;;;;;17.67;12.07;;;6.30;99.90;;;;;;5154635;27;20053;-55
2023/11/12 08:26:47;;;;;;;15.00;11.77;;;6.40;99.90;;;;;;5154495;27;20063;-55
2023/11/12 08:29:13;;;;;;;12.90;11.27;;;6.60;99.90;;;;;;5154553;27;20035;-54
2023/11/12 08:31:39;;;;;;;13.25;10.95;;;6.60;99.90;;;;;;5154186;27;20099;-55
2023/11/12 08:34:06;;;;;;;13.27;11.02;;;6.60;99.90;;;;;;5154511;27;20113;-51
2023/11/12 08:36:32;;;;;;;13.07;10.82;;;6.70;99.90;;;;;;5154225;27;20037;-55
2023/11/12 08:38:58;;;;;;;12.68;10.82;;;6.90;99.90;;;;;;5154218;27;20042;-55
2023/11/12 08:41:24;;;;;;;11.57;10.13;;;7.10;99.90;;;;;;5153985;27;20349;-55
2023/11/12 08:43:50;;;;;;;11.63;9.85;;;7.30;99.90;;;;;;5154235;27;20076;-54
2023/11/12 08:46:17;;;;;;;10.85;9.75;;;7.40;99.90;;;;;;5153346;27;20026;-55
2023/11/12 08:48:43;;;;;;;11.20;9.77;;;7.60;99.90;;;;;;5153884;27;20487;-54
2023/11/12 08:51:12;;;;;;;10.35;8.85;;;7.60;99.90;;;;;;5154065;27;20026;-54
2023/11/12 08:53:39;;;;;;;10.25;8.30;;;7.70;99.90;;;;;;5153782;27;20042;-55
2023/11/12 08:56:06;;;;;;;10.70;8.45;;;7.70;99.90;;;;;;5135627;27;20050;-55
2023/11/12 08:58:31;;;;;;;11.55;8.52;;;7.80;99.90;;;;;;5154208;27;20031;-56
2023/11/12 09:00:58;;;;;;;10.50;8.18;;;7.70;99.90;;;;;;5153586;27;20119;-54
2023/11/12 09:03:23;;;;;;;16.00;8.60;;;7.80;99.90;;;;;;5153705;27;20168;-54
2023/11/12 09:05:49;;;;;;;9.15;8.13;;;7.90;99.90;;;;;;5153893;27;20113;-54
2023/11/12 09:08:16;;;;;;;11.25;8.35;;;8.00;99.90;;;;;;5153709;27;20121;-54
2023/11/12 09:10:42;;;;;;;9.95;8.05;;;8.10;99.90;;;;;;5153547;27;20039;-55
2023/11/12 09:13:09;;;;;;;10.07;8.65;;;8.10;99.90;;;;;;5153595;27;20162;-56
2023/11/12 09:15:36;;;;;;;10.13;8.20;;;8.20;99.90;;;;;;5153408;27;20049;-57
2023/11/12 09:18:02;;;;;;;10.38;8.18;;;8.30;99.90;;;;;;5153672;27;20043;-55
2023/11/12 09:20:28;;;;;;;9.63;7.50;;;8.40;99.90;;;;;;5153498;27;20135;-55
2023/11/12 09:22:54;;;;;;;9.50;8.52;;;8.40;99.90;;;;;;5153294;27;20445;-54
2023/11/12 09:25:19;;;;;;;10.73;8.55;;;8.50;99.90;;;;;;5153351;27;20389;-55
2023/11/12 09:27:45;;;;;;;12.38;8.90;;;8.50;99.90;;;;;;5153175;27;20468;-56
2023/11/12 09:30:11;;;;;;;11.25;8.57;;;8.60;99.90;;;;;;5153414;27;20472;-55
2023/11/12 09:32:37;;;;;;;10.30;8.02;;;8.60;99.90;;;;;;5153441;27;20042;-55
2023/11/12 09:35:08;;;;;;;11.32;8.73;;;8.70;99.90;;;;;;5153594;27;20038;-56
2023/11/12 09:37:34;;;;;;;8.25;7.40;;;8.70;99.90;;;;;;5153282;27;20037;-56
2023/11/12 09:40:00;;;;;;;11.60;8.75;;;8.80;99.90;;;;;;5153162;27;20388;-56
2023/11/12 09:42:27;;;;;;;11.75;9.13;;;8.80;99.90;;;;;;5152825;27;20046;-56
2023/11/12 09:44:56;;;;;;;11.32;9.00;;;8.80;99.90;;;;;;5153422;27;20077;-56
2023/11/12 09:47:25;;;;;;;;;;;8.90;99.90;;;;;;5153617;27;20046;-53
2023/11/12 09:49:51;;;;;;;11.27;8.77;;;9.00;99.90;;;;;;5153226;27;19926;-55
2023/11/12 09:52:17;;;;;;;13.43;9.10;;;9.00;99.90;;;;;;5153043;27;20035;-55
2023/11/12 09:54:44;;;;;;;13.55;8.52;;;9.00;99.90;;;;;;5153051;27;20075;-55
2023/11/12 09:57:10;;;;;;;9.40;8.38;;;9.00;99.90;;;;;;5152855;27;20070;-55
2023/11/12 09:59:36;;;;;;;9.25;7.60;;;9.10;99.90;;;;;;5156671;27;20451;-56
2023/11/12 10:02:06;;;;;;;12.35;8.20;;;9.00;99.90;;;;;;5157276;27;20046;-56
2023/11/12 10:04:32;;;;;;;9.45;7.80;;;9.10;99.90;;;;;;5157343;27;20376;-56
2023/11/12 10:06:58;;;;;;;9.35;7.75;;;9.20;99.90;;;;;;5157231;27;20038;-56
2023/11/12 10:09:28;;;;;;;9.90;8.27;;;9.30;99.90;;;;;;5157023;27;20041;-55
2023/11/12 10:12:06;;;;;;;8.70;7.47;;;9.30;99.90;;;;;;5157113;27;20388;-55
2023/11/12 10:14:32;;;;;;;8.70;7.65;;;9.40;99.90;;;;;;5157110;27;20046;-55
2023/11/12 10:17:05;;;;;;;9.15;7.50;;;9.40;99.90;;;;;;5157132;27;20118;-55
2023/11/12 10:19:31;;;;;;;7.93;7.13;;;9.50;99.90;;;;;;5156877;27;20091;-56
2023/11/12 10:22:00;;;;;;;11.82;7.82;;;9.60;99.90;;;;;;5157177;27;20042;-54
2023/11/12 10:24:28;;;;;;;9.20;7.65;;;9.70;99.90;;;;;;5157101;27;20117;-55
2023/11/12 10:27:04;;;;;;;9.45;6.97;;;9.70;99.90;;;;;;5156935;27;20049;-55
2023/11/12 10:29:31;;;;;;;8.25;7.20;;;9.70;99.90;;;;;;5156606;27;20035;-56
2023/11/12 10:31:59;;;;;;;8.68;7.55;;;9.80;99.90;;;;;;5138474;27;20457;-56
2023/11/12 10:34:26;;;;;;;9.15;7.95;;;9.80;99.90;;;;;;5156495;27;20062;-56
2023/11/12 10:37:16;;;;;;;10.25;7.93;;;9.90;99.90;;;;;;5156841;27;20402;-54
2023/11/12 10:39:43;;;;;;;10.07;7.85;;;10.00;99.90;;;;;;5156445;27;20500;-56
2023/11/12 10:42:26;;;;;;;10.90;8.05;;;10.00;99.90;;;;;;5156327;27;20138;-56
2023/11/12 10:44:55;;;;;;;9.65;7.35;;;10.10;99.90;;;;;;5124541;27;20434;-45
2023/11/12 10:47:26;;;;;;;11.65;8.07;;;10.30;99.90;;;;;;5125329;27;20088;-44
2023/11/12 10:49:52;;;;;;;9.00;7.53;;;10.50;99.90;;;;;;5138667;27;20119;-46
2023/11/12 10:52:18;;;;;;;10.35;8.05;;;10.50;99.90;;;;;;5144691;27;20046;-47
2023/11/12 10:54:45;;;;;;;12.80;8.48;;;10.50;99.90;;;;;;5156357;27;20070;-48
2023/11/12 10:57:15;;;;;;;9.13;8.23;;;10.60;99.90;;;;;;5127366;27;20031;-44
2023/11/12 10:59:42;;;;;;;10.23;7.68;;;10.50;99.90;;;;;;5156241;27;20046;-43
2023/11/12 11:02:17;;;;;;;8.98;8.05;;;10.60;99.90;;;;;;5150420;27;20074;-47
2023/11/12 11:04:48;;;;;;;10.77;8.68;;;10.50;99.90;;;;;;5133453;27;20023;-46
2023/11/12 11:07:16;;;;;;;10.75;8.82;;;10.60;99.90;;;;;;5132077;27;20599;-48
2023/11/12 11:09:43;;;;;;;10.35;8.98;;;10.50;99.90;;;;;;5133703;27;20443;-49
2023/11/12 11:12:13;;;;;;;12.75;9.15;;;10.50;99.90;;;;;;5120112;27;20114;-44
2023/11/12 11:14:39;;;;;;;10.35;9.13;;;10.60;99.90;;;;;;5135030;27;20493;-47
2023/11/12 11:17:06;;;;;;;10.10;8.43;;;10.60;99.90;;;;;;5135400;27;20091;-45
2023/11/12 11:19:51;;;;;;;10.15;8.90;;;10.60;99.90;;;;;;5153433;27;20125;-48
2023/11/12 11:22:32;;;;;;;11.30;8.40;;;10.70;99.90;;;;;;5155346;27;20051;-46
2023/11/12 11:24:59;;;;;;;10.05;8.68;;;10.70;99.90;;;;;;5127091;27;20074;-43
2023/11/12 11:27:26;;;;;;;9.98;8.98;;;10.80;99.90;;;;;;5149232;27;20037;-43
2023/11/12 11:30:11;;;;;;;10.23;8.68;;;10.90;99.90;;;;;;5155655;27;20030;-43
2023/11/12 11:32:37;;;;;;;10.32;8.48;;;10.90;99.90;;;;;;5155530;27;20043;-46
2023/11/12 11:35:16;;;;;;;9.85;8.85;;;10.90;99.90;;;;;;5155433;27;20123;-48
2023/11/12 11:38:12;;;;;;;10.65;8.55;;;10.90;99.90;;;;;;5155760;27;20035;-48
2023/11/12 11:40:39;;;;;;;9.00;7.68;;;10.70;99.90;;;;;;5146681;27;20042;-46
2023/11/12 11:43:23;;;;;;;9.63;8.30;;;10.60;99.90;;;;;;5155379;27;20058;-48
2023/11/12 11:46:12;;;;;;;11.63;9.02;;;10.70;99.90;;;;;;5145826;27;20126;-47
2023/11/12 11:48:44;;;;;;;10.35;8.23;;;10.80;99.90;;;;;;5155336;27;20035;-46
2023/11/12 11:51:37;;;;;;;8.23;7.43;;;10.80;99.90;;;;;;5134159;27;20027;-45
2023/11/12 11:54:06;;;;;;;9.25;8.25;;;10.90;99.90;;;;;;5155132;27;20519;-45
2023/11/12 11:56:33;;;;;;;8.93;8.02;;;10.90;99.90;;;;;;5136676;27;20484;-43
2023/11/12 11:58:59;;;;;;;8.65;7.60;;;10.90;99.90;;;;;;5155283;27;20038;-44
2023/11/12 12:01:26;;;;;;;9.05;8.07;;;11.00;99.90;;;;;;5155079;27;20038;-45
2023/11/12 12:04:04;;;;;;;8.70;7.60;;;11.00;99.90;;;;;;5154903;27;20091;-48
2023/11/12 12:06:31;;;;;;;10.20;7.70;;;11.10;99.90;;;;;;5154986;27;20057;-45
2023/11/12 12:08:57;;;;;;;8.77;7.80;;;11.00;99.90;;;;;;5155149;27;20039;-45
2023/11/12 12:11:24;;;;;;;13.52;7.88;;;11.00;99.90;;;;;;5144852;27;20038;-44
2023/11/12 12:14:02;;;;;;;9.50;8.35;;;11.10;99.90;;;;;;5154764;27;20039;-44
2023/11/12 12:16:34;;;;;;;12.25;8.23;;;11.10;99.90;;;;;;5150164;27;20046;-45
2023/11/12 12:19:01;;;;;;;9.52;8.30;;;11.10;99.90;;;;;;5125973;27;20046;-45
2023/11/12 12:21:28;;;;;;;12.52;7.90;;;11.10;99.90;;;;;;5135399;27;20035;-43
2023/11/12 12:23:54;;;;;;;14.77;8.05;;;11.10;99.90;;;;;;5134255;27;20095;-46
2023/11/12 12:26:24;;;;;;;9.98;8.27;;;11.20;99.90;;;;;;5154520;27;20109;-44
2023/11/12 12:28:51;;;;;;;10.80;8.10;;;11.20;99.90;;;;;;5154460;27;20064;-45
2023/11/12 12:31:17;;;;;;;8.98;7.50;;;11.20;99.90;;;;;;5151191;27;20035;-45
2023/11/12 12:34:09;;;;;;;8.95;8.05;;;11.20;99.90;;;;;;5152290;27;20106;-48
2023/11/12 12:36:34;;;;;;;8.00;7.20;;;11.30;99.90;;;;;;5154048;27;20045;-47
2023/11/12 12:39:09;;;;;;;7.57;6.78;;;11.20;99.90;;;;;;5154224;27;20039;-45
2023/11/12 12:41:37;;;;;;;6.78;5.97;;;11.20;99.90;;;;;;5151698;27;20099;-49
2023/11/12 12:44:04;;;;;;;6.90;6.17;;;11.20;99.90;;;;;;5154936;27;20399;-45